createdAt,value
2018-12-13T00:01:57.478Z,60.17
2018-12-13T00:07:10.128Z,61.23
2018-12-13T00:09:37.073Z,64.60
2018-12-13T00:12:03.789Z,76.33
2018-12-13T00:14:30.529Z,69.67
2018-12-13T00:16:57.393Z,74.37
2018-12-13T00:19:24.127Z,74.30
2018-12-13T00:21:50.879Z,67.17
2018-12-13T00:24:17.770Z,64.53
2018-12-13T00:26:44.494Z,66.60
2018-12-13T00:29:11.309Z,67.97
2018-12-13T00:31:38.031Z,70.47
2018-12-13T00:34:04.745Z,63.40
2018-12-13T00:36:31.520Z,71.67
2018-12-13T00:38:58.316Z,67.87
2018-12-13T00:41:25.090Z,72.37
2018-12-13T00:43:51.893Z,67.93
2018-12-13T00:46:18.703Z,71.80
2018-12-13T00:48:45.426Z,73.57
2018-12-13T00:51:12.243Z,72.17
2018-12-13T00:53:38.989Z,81.10
2018-12-13T00:56:06.322Z,81.77
2018-12-13T00:58:33.106Z,94.07
2018-12-13T01:01:00.354Z,85.87
2018-12-13T01:03:27.420Z,85.50
2018-12-13T01:05:54.204Z,78.27
2018-12-13T01:08:20.922Z,71.23
2018-12-13T01:10:47.664Z,81.80
2018-12-13T01:13:14.447Z,73.70
2018-12-13T01:15:41.152Z,63.97
2018-12-13T01:18:07.871Z,69.80
2018-12-13T01:20:34.625Z,63.97
2018-12-13T01:23:01.490Z,70.33
2018-12-13T01:25:28.732Z,70.33
2018-12-13T01:27:55.636Z,73.23
2018-12-13T01:30:22.368Z,69.60
2018-12-13T01:32:49.086Z,64.90
2018-12-13T01:35:15.967Z,69.97
2018-12-13T01:37:42.970Z,79.13
2018-12-13T01:40:09.854Z,72.10
2018-12-13T01:42:36.793Z,69.03
2018-12-13T01:45:03.943Z,69.73
2018-12-13T01:47:30.795Z,70.00
2018-12-13T01:49:57.564Z,65.23
2018-12-13T01:52:24.509Z,63.57
2018-12-13T01:54:51.245Z,63.70
2018-12-13T01:57:18.102Z,64.30
2018-12-13T01:59:44.831Z,73.67
2018-12-13T02:02:11.549Z,88.60
2018-12-13T02:04:38.312Z,82.63
2018-12-13T02:07:05.033Z,72.43
2018-12-13T02:09:31.808Z,76.67
2018-12-13T02:11:58.567Z,80.20
2018-12-13T02:14:25.287Z,80.17
2018-12-13T02:16:52.305Z,70.97
2018-12-13T02:19:19.141Z,81.40
2018-12-13T02:21:45.989Z,85.63
2018-12-13T02:24:12.751Z,77.77
2018-12-13T02:26:44.590Z,82.23
2018-12-13T02:29:11.433Z,85.27
2018-12-13T02:31:38.277Z,88.97
2018-12-13T02:34:05.117Z,82.53
2018-12-13T02:36:31.843Z,91.73
2018-12-13T02:38:58.561Z,91.87
2018-12-13T02:41:25.322Z,89.93
2018-12-13T02:43:52.199Z,99.30
2018-12-13T02:46:19.029Z,105.97
2018-12-13T02:48:45.968Z,121.57
2018-12-13T02:51:12.704Z,114.20
2018-12-13T02:53:39.520Z,109.00
2018-12-13T02:56:06.508Z,115.93
2018-12-13T02:58:33.861Z,111.23
2018-12-13T03:01:00.598Z,110.73
2018-12-13T03:03:27.395Z,112.10
2018-12-13T03:05:54.144Z,111.50
2018-12-13T03:08:20.888Z,102.00
2018-12-13T03:10:47.667Z,111.03
2018-12-13T03:13:14.431Z,110.17
2018-12-13T03:15:41.145Z,110.37
2018-12-13T03:18:07.953Z,109.60
2018-12-13T03:20:34.704Z,111.53
2018-12-13T03:23:01.505Z,107.53
2018-12-13T03:25:28.419Z,105.67
2018-12-13T03:27:55.151Z,111.70
2018-12-13T03:30:22.007Z,106.40
2018-12-13T03:32:48.782Z,97.77
2018-12-13T03:35:15.523Z,103.57
2018-12-13T03:37:42.418Z,101.17
2018-12-13T03:40:09.188Z,92.67
2018-12-13T03:42:35.933Z,102.13
2018-12-13T03:45:02.640Z,96.67
2018-12-13T03:47:29.695Z,101.03
2018-12-13T03:49:56.422Z,107.83
2018-12-13T03:52:23.181Z,106.23
2018-12-13T03:54:49.944Z,113.83
2018-12-13T03:57:16.671Z,107.37
2018-12-13T03:59:43.400Z,110.60
2018-12-13T04:02:10.177Z,110.60
2018-12-13T04:04:36.895Z,106.70
2018-12-13T04:07:03.737Z,103.10
2018-12-13T04:09:30.539Z,106.57
2018-12-13T04:11:57.406Z,103.87
2018-12-13T04:14:24.261Z,106.87
2018-12-13T04:16:51.021Z,106.67
2018-12-13T04:19:17.746Z,106.33
2018-12-13T04:21:44.572Z,129.90
2018-12-13T04:24:11.337Z,131.90
2018-12-13T04:26:38.167Z,140.87
2018-12-13T04:29:05.115Z,118.47
2018-12-13T04:31:32.015Z,111.63
2018-12-13T04:33:58.893Z,109.03
2018-12-13T04:36:25.948Z,109.43
2018-12-13T04:38:53.081Z,109.80
2018-12-13T04:41:19.806Z,89.83
2018-12-13T04:43:46.667Z,87.87
2018-12-13T04:46:13.627Z,94.80
2018-12-13T04:48:40.459Z,90.20
2018-12-13T04:51:07.171Z,87.23
2018-12-13T04:53:33.924Z,87.27
2018-12-13T04:56:06.630Z,92.17
2018-12-13T04:58:33.455Z,82.97
2018-12-13T05:01:00.224Z,72.50
2018-12-13T05:03:27.557Z,80.57
2018-12-13T05:05:54.299Z,77.23
2018-12-13T05:08:21.064Z,77.07
2018-12-13T05:10:50.135Z,78.37
2018-12-13T05:13:16.979Z,78.17
2018-12-13T05:15:43.746Z,79.17
2018-12-13T05:18:10.490Z,83.13
2018-12-13T05:20:37.525Z,76.07
2018-12-13T05:23:04.316Z,75.47
2018-12-13T05:25:31.062Z,80.50
2018-12-13T05:27:57.853Z,82.53
2018-12-13T05:30:24.625Z,80.17
2018-12-13T05:32:51.355Z,74.60
2018-12-13T05:35:18.265Z,78.17
2018-12-13T05:37:48.278Z,82.10
2018-12-13T05:40:13.801Z,84.07
2018-12-13T05:42:40.545Z,86.07
2018-12-13T05:45:07.314Z,91.83
2018-12-13T05:47:34.228Z,90.33
2018-12-13T05:50:01.007Z,93.67
2018-12-13T05:52:27.797Z,92.10
2018-12-13T05:54:54.520Z,97.87
2018-12-13T05:57:21.500Z,96.27
2018-12-13T05:59:48.280Z,93.27
2018-12-13T06:02:15.017Z,91.33
2018-12-13T06:04:41.864Z,101.13
2018-12-13T06:07:08.820Z,109.83
2018-12-13T06:09:35.555Z,122.77
2018-12-13T06:12:02.285Z,137.53
2018-12-13T06:14:29.774Z,128.03
2018-12-13T06:16:56.604Z,145.20
2018-12-13T06:19:26.721Z,123.13
2018-12-13T06:21:52.153Z,110.50
2018-12-13T06:24:18.884Z,123.30
2018-12-13T06:26:45.670Z,106.40
2018-12-13T06:29:12.446Z,97.10
2018-12-13T06:31:39.204Z,103.30
2018-12-13T06:34:06.129Z,130.17
2018-12-13T06:36:32.935Z,134.13
2018-12-13T06:38:59.674Z,137.03
2018-12-13T06:41:26.536Z,132.03
2018-12-13T06:43:53.402Z,112.27
2018-12-13T06:46:20.276Z,119.03
2018-12-13T06:48:47.052Z,113.10
2018-12-13T06:51:18.171Z,135.83
2018-12-13T06:53:44.903Z,129.97
2018-12-13T06:56:12.002Z,118.43
2018-12-13T06:58:39.741Z,111.10
2018-12-13T07:01:06.818Z,112.00
2018-12-13T07:03:33.758Z,111.80
2018-12-13T07:06:00.523Z,111.43
2018-12-13T07:08:27.338Z,118.87
2018-12-13T07:10:54.295Z,119.27
2018-12-13T07:13:21.099Z,108.53
2018-12-13T07:15:47.940Z,116.10
2018-12-13T07:18:14.665Z,118.43
2018-12-13T07:20:42.231Z,138.20
2018-12-13T07:23:09.109Z,143.87
2018-12-13T07:25:36.948Z,129.87
2018-12-13T07:28:05.503Z,134.13
2018-12-13T07:30:32.459Z,122.17
2018-12-13T07:32:59.687Z,127.83
2018-12-13T07:35:26.640Z,137.70
2018-12-13T07:37:53.608Z,144.43
2018-12-13T07:40:20.491Z,129.30
2018-12-13T07:42:47.395Z,132.67
2018-12-13T07:45:14.483Z,129.60
2018-12-13T07:47:41.401Z,125.07
2018-12-13T07:50:08.241Z,127.90
2018-12-13T07:52:34.991Z,128.40
2018-12-13T07:55:02.041Z,140.20
2018-12-13T07:57:29.295Z,132.93
2018-12-13T07:59:56.028Z,136.33
2018-12-13T08:02:23.176Z,140.07
2018-12-13T08:04:49.976Z,138.77
2018-12-13T08:07:16.751Z,146.80
2018-12-13T08:09:43.535Z,136.67
2018-12-13T08:12:10.305Z,141.83
2018-12-13T08:14:37.079Z,136.60
2018-12-13T08:17:03.891Z,117.70
2018-12-13T08:19:30.825Z,143.03
2018-12-13T08:21:57.567Z,139.57
2018-12-13T08:24:24.346Z,145.63
2018-12-13T08:26:51.161Z,131.67
2018-12-13T08:29:19.119Z,136.93
2018-12-13T08:31:45.987Z,133.83
2018-12-13T08:34:13.064Z,134.43
2018-12-13T08:36:39.829Z,132.50
2018-12-13T08:39:07.362Z,134.73
2018-12-13T08:41:34.366Z,140.47
2018-12-13T08:44:01.471Z,134.23
2018-12-13T08:46:28.354Z,126.10
2018-12-13T08:48:55.166Z,136.80
2018-12-13T08:51:21.924Z,149.60
2018-12-13T08:53:48.716Z,126.27
2018-12-13T08:56:15.513Z,194.57
2018-12-13T08:58:42.247Z,173.43
2018-12-13T09:01:09.361Z,187.77
2018-12-13T09:03:36.243Z,169.93
2018-12-13T09:06:02.990Z,144.63
2018-12-13T09:08:33.649Z,135.37
2018-12-13T09:10:58.531Z,130.90
2018-12-13T09:13:25.271Z,142.47
2018-12-13T09:15:52.035Z,144.77
2018-12-13T09:18:18.828Z,142.80
2018-12-13T09:20:45.583Z,125.67
2018-12-13T09:23:12.330Z,121.90
2018-12-13T09:25:39.345Z,114.13
2018-12-13T09:28:06.086Z,146.63
2018-12-13T09:30:33.101Z,131.33
2018-12-13T09:33:00.029Z,128.77
2018-12-13T09:35:26.988Z,131.43
2018-12-13T09:37:54.171Z,140.07
2018-12-13T09:40:21.093Z,135.80
2018-12-13T09:42:48.381Z,143.57
2018-12-13T09:45:15.328Z,143.50
2018-12-13T09:47:42.159Z,132.90
2018-12-13T09:50:09.133Z,129.00
2018-12-13T09:52:35.966Z,132.33
2018-12-13T09:55:05.542Z,113.33
2018-12-13T09:57:32.527Z,109.50
2018-12-13T09:59:59.486Z,108.13
2018-12-13T10:02:26.270Z,112.80
2018-12-13T10:04:53.702Z,105.67
2018-12-13T10:07:20.503Z,128.77
2018-12-13T10:09:47.298Z,129.83
2018-12-13T10:12:14.111Z,116.77
2018-12-13T10:14:40.981Z,114.27
2018-12-13T10:17:07.822Z,117.43
2018-12-13T10:19:34.603Z,108.67
2018-12-13T10:22:01.522Z,104.37
2018-12-13T10:24:28.386Z,100.47
2018-12-13T10:26:55.130Z,96.77
2018-12-13T10:29:21.913Z,100.70
2018-12-13T10:31:48.713Z,101.40
2018-12-13T10:34:15.459Z,92.13
2018-12-13T10:36:42.356Z,78.40
2018-12-13T10:39:09.072Z,78.40
2018-12-13T10:41:35.812Z,76.17
2018-12-13T10:44:02.756Z,84.93
2018-12-13T10:46:29.480Z,85.60
2018-12-13T10:48:56.261Z,82.87
2018-12-13T10:51:23.054Z,81.27
2018-12-13T10:53:49.884Z,95.97
2018-12-13T10:56:16.622Z,86.80
2018-12-13T10:58:43.469Z,108.37
2018-12-13T11:01:16.058Z,126.00
2018-12-13T11:03:42.918Z,128.73
2018-12-13T11:06:09.680Z,132.00
2018-12-13T11:08:37.444Z,157.87
2018-12-13T11:11:04.184Z,138.40
2018-12-13T11:13:31.049Z,108.10
2018-12-13T11:15:57.841Z,121.77
2018-12-13T11:18:24.574Z,107.57
2018-12-13T11:20:51.374Z,113.50
2018-12-13T11:23:18.090Z,93.17
2018-12-13T11:25:44.825Z,99.07
2018-12-13T11:28:17.558Z,94.10
2018-12-13T11:30:44.396Z,127.60
2018-12-13T11:33:11.128Z,121.03
2018-12-13T11:35:37.898Z,139.33
2018-12-13T11:38:04.643Z,159.67
2018-12-13T11:40:31.692Z,179.13
2018-12-13T11:42:58.503Z,126.13
2018-12-13T11:45:25.237Z,124.22
2018-12-13T11:47:52.023Z,122.43
2018-12-13T11:50:19.153Z,112.47
2018-12-13T11:52:47.136Z,114.67
2018-12-13T11:55:20.020Z,109.80
2018-12-13T11:57:46.804Z,112.67
2018-12-13T12:00:14.106Z,113.07
2018-12-13T12:02:42.512Z,130.90
2018-12-13T12:05:09.281Z,116.97
2018-12-13T12:07:36.006Z,102.23
2018-12-13T12:10:02.937Z,106.70
2018-12-13T12:12:30.624Z,117.60
2018-12-13T12:14:57.355Z,118.93
2018-12-13T12:17:24.136Z,119.17
2018-12-13T12:19:50.872Z,121.93
2018-12-13T12:22:17.805Z,132.03
2018-12-13T12:24:44.581Z,130.13
2018-12-13T12:27:11.301Z,116.83
2018-12-13T12:29:38.027Z,115.23
2018-12-13T12:32:05.026Z,110.33
2018-12-13T12:34:31.761Z,110.67
2018-12-13T12:36:58.489Z,111.10
2018-12-13T12:39:25.262Z,114.77
2018-12-13T12:41:52.003Z,108.27
2018-12-13T12:44:18.771Z,118.40
2018-12-13T12:46:45.573Z,134.83
2018-12-13T12:49:12.423Z,134.23
2018-12-13T12:51:39.162Z,122.47
2018-12-13T12:54:06.049Z,123.03
2018-12-13T12:56:32.831Z,126.13
2018-12-13T12:58:59.691Z,118.07
2018-12-13T13:01:26.475Z,131.37
2018-12-13T13:03:53.254Z,140.67
2018-12-13T13:06:19.981Z,131.10
2018-12-13T13:08:46.773Z,130.57
2018-12-13T13:11:13.683Z,117.90
2018-12-13T13:13:40.539Z,140.90
2018-12-13T13:16:07.419Z,135.70
2018-12-13T13:18:39.017Z,126.07
2018-12-13T13:21:03.495Z,140.23
2018-12-13T13:23:30.369Z,138.70
2018-12-13T13:25:57.225Z,136.57
2018-12-13T13:28:24.075Z,143.53
2018-12-13T13:30:50.855Z,136.80
2018-12-13T13:33:17.586Z,129.73
2018-12-13T13:35:44.335Z,123.53
2018-12-13T13:38:11.150Z,133.83
2018-12-13T13:40:37.887Z,134.93
2018-12-13T13:43:04.633Z,139.13
2018-12-13T13:45:31.404Z,130.93
2018-12-13T13:47:58.146Z,132.50
2018-12-13T13:50:24.927Z,134.23
2018-12-13T13:52:51.868Z,157.07
2018-12-13T13:55:18.646Z,158.70
2018-12-13T13:57:45.368Z,147.67
2018-12-13T14:00:12.349Z,148.83
2018-12-13T14:02:39.082Z,150.00
2018-12-13T14:05:05.894Z,136.47
2018-12-13T14:07:32.646Z,134.43
2018-12-13T14:09:59.456Z,143.20
2018-12-13T14:12:26.194Z,157.13
2018-12-13T14:14:52.965Z,148.80
2018-12-13T14:17:19.693Z,152.30
2018-12-13T14:19:46.420Z,154.40
2018-12-13T14:22:13.195Z,149.20
2018-12-13T14:24:39.918Z,144.33
2018-12-13T14:27:06.644Z,141.03
2018-12-13T14:29:34.083Z,136.83
2018-12-13T14:32:00.794Z,145.03
2018-12-13T14:34:27.599Z,153.97
2018-12-13T14:36:54.423Z,140.37
2018-12-13T14:39:21.138Z,161.80
2018-12-13T14:41:47.866Z,151.27
2018-12-13T14:44:14.663Z,158.73
2018-12-13T14:46:41.394Z,163.13
2018-12-13T14:49:08.170Z,159.03
2018-12-13T14:51:35.071Z,165.70
2018-12-13T14:54:01.826Z,167.60
2018-12-13T14:56:28.637Z,162.03
2018-12-13T14:58:55.418Z,157.67
2018-12-13T15:01:22.150Z,165.47
2018-12-13T15:03:49.184Z,181.17
2018-12-13T15:06:16.063Z,176.80
2018-12-13T15:08:42.798Z,187.53
2018-12-13T15:11:09.557Z,196.67
2018-12-13T15:13:36.576Z,193.93
2018-12-13T15:16:03.300Z,227.77
2018-12-13T15:18:30.035Z,220.60
2018-12-13T15:20:56.824Z,197.50
2018-12-13T15:23:23.640Z,207.67
2018-12-13T15:25:50.480Z,216.63
2018-12-13T15:28:17.320Z,230.03
2018-12-13T15:30:44.156Z,216.07
2018-12-13T15:33:10.893Z,220.10
2018-12-13T15:35:37.748Z,188.73
2018-12-13T15:38:04.486Z,194.97
2018-12-13T15:40:31.219Z,197.10
2018-12-13T15:42:57.995Z,220.20
2018-12-13T15:45:24.859Z,211.07
2018-12-13T15:47:51.624Z,208.63
2018-12-13T15:50:22.460Z,210.83
2018-12-13T15:52:49.227Z,206.40
2018-12-13T15:55:15.975Z,205.23
2018-12-13T15:57:42.757Z,209.70
2018-12-13T16:00:09.714Z,210.07
2018-12-13T16:02:36.449Z,215.13
2018-12-13T16:05:03.841Z,206.53
2018-12-13T16:07:30.605Z,206.20
2018-12-13T16:10:03.654Z,210.17
2018-12-13T16:12:26.473Z,221.50
2018-12-13T16:14:53.311Z,208.10
2018-12-13T16:17:20.083Z,201.07
2018-12-13T16:19:46.885Z,204.97
2018-12-13T16:22:13.606Z,202.43
2018-12-13T16:24:40.331Z,208.20
2018-12-13T16:27:07.277Z,215.93
2018-12-13T16:29:34.009Z,213.60
2018-12-13T16:32:00.768Z,207.93
2018-12-13T16:34:27.532Z,203.43
2018-12-13T16:36:54.256Z,204.03
2018-12-13T16:39:21.082Z,219.60
2018-12-13T16:41:48.076Z,217.70
2018-12-13T16:44:14.974Z,204.07
2018-12-13T16:46:41.738Z,202.23
2018-12-13T16:49:08.578Z,193.20
2018-12-13T16:51:35.418Z,214.13
2018-12-13T16:54:02.347Z,199.23
2018-12-13T16:56:29.139Z,223.17
2018-12-13T16:58:55.870Z,230.60
2018-12-13T17:01:22.631Z,219.10
2018-12-13T17:03:49.453Z,208.50
2018-12-13T17:06:16.186Z,213.37
2018-12-13T17:08:42.932Z,215.30
2018-12-13T17:11:09.746Z,235.53
2018-12-13T17:13:36.472Z,224.50
2018-12-13T17:16:03.527Z,230.80
2018-12-13T17:18:30.272Z,231.07
2018-12-13T17:20:57.110Z,240.10
2018-12-13T17:23:23.867Z,229.30
2018-12-13T17:25:50.700Z,252.73
2018-12-13T17:28:17.438Z,256.07
2018-12-13T17:30:44.195Z,249.10
2018-12-13T17:33:10.934Z,291.93
2018-12-13T17:35:37.670Z,272.27
2018-12-13T17:38:04.434Z,251.77
2018-12-13T17:40:31.179Z,256.87
2018-12-13T17:42:57.900Z,255.47
2018-12-13T17:45:24.855Z,253.63
2018-12-13T17:47:51.624Z,254.03
2018-12-13T17:50:18.371Z,268.97
2018-12-13T17:52:45.116Z,269.57
2018-12-13T17:55:11.881Z,267.23
2018-12-13T17:57:39.081Z,279.70
2018-12-13T18:00:08.986Z,307.40
2018-12-13T18:02:35.734Z,289.13
2018-12-13T18:05:02.472Z,294.23
2018-12-13T18:07:29.342Z,305.23
2018-12-13T18:09:56.234Z,287.87
2018-12-13T18:12:22.977Z,275.50
2018-12-13T18:14:50.216Z,275.27
2018-12-13T18:17:17.374Z,255.80
2018-12-13T18:19:44.312Z,267.40
2018-12-13T18:22:11.100Z,254.37
2018-12-13T18:24:37.847Z,266.03
2018-12-13T18:27:04.595Z,260.23
2018-12-13T18:29:31.505Z,258.23
2018-12-13T18:31:58.243Z,260.20
2018-12-13T18:34:24.982Z,262.30
2018-12-13T18:36:51.749Z,262.90
2018-12-13T18:39:19.302Z,242.50
2018-12-13T18:41:46.055Z,252.20
2018-12-13T18:44:13.104Z,255.37
2018-12-13T18:46:39.864Z,265.03
2018-12-13T18:49:06.641Z,289.87
2018-12-13T18:51:33.427Z,327.40
2018-12-13T18:54:00.168Z,311.90
2018-12-13T18:56:26.964Z,349.37
2018-12-13T18:58:53.850Z,329.77
2018-12-13T19:01:20.760Z,307.73
2018-12-13T19:03:47.572Z,265.87
2018-12-13T19:06:14.345Z,264.47
2018-12-13T19:08:41.188Z,258.40
2018-12-13T19:11:08.471Z,314.37
2018-12-13T19:13:35.412Z,327.10
2018-12-13T19:16:02.164Z,292.03
2018-12-13T19:18:29.062Z,319.57
2018-12-13T19:20:55.849Z,304.97
2018-12-13T19:23:22.692Z,297.23
2018-12-13T19:25:49.447Z,292.53
2018-12-13T19:28:16.227Z,295.77
2018-12-13T19:30:42.953Z,256.93
2018-12-13T19:33:09.828Z,245.10
2018-12-13T19:35:36.624Z,234.37
2018-12-13T19:38:03.376Z,281.57
2018-12-13T19:40:30.111Z,274.63
2018-12-13T19:42:56.907Z,311.90
2018-12-13T19:45:24.237Z,291.60
2018-12-13T19:47:51.086Z,294.73
2018-12-13T19:50:18.058Z,292.37
2018-12-13T19:52:44.887Z,295.57
2018-12-13T19:55:11.657Z,297.40
2018-12-13T19:57:38.499Z,282.00
2018-12-13T20:00:06.790Z,280.30
2018-12-13T20:02:33.622Z,287.97
2018-12-13T20:05:00.662Z,281.37
2018-12-13T20:07:27.563Z,266.17
2018-12-13T20:09:54.426Z,267.67
2018-12-13T20:12:21.456Z,267.47
2018-12-13T20:14:48.202Z,282.43
2018-12-13T20:17:15.053Z,273.73
2018-12-13T20:19:42.012Z,274.77
2018-12-13T20:22:08.756Z,242.27
2018-12-13T20:24:35.513Z,230.77
2018-12-13T20:27:07.570Z,198.57
2018-12-13T20:29:34.329Z,195.87
2018-12-13T20:32:01.055Z,213.10
2018-12-13T20:34:27.828Z,207.07
2018-12-13T20:36:54.613Z,204.30
2018-12-13T20:39:21.549Z,198.93
2018-12-13T20:41:48.430Z,201.50
2018-12-13T20:44:15.177Z,219.30
2018-12-13T20:46:41.908Z,227.20
2018-12-13T20:49:08.849Z,234.50
2018-12-13T20:51:35.610Z,225.20
2018-12-13T20:54:02.390Z,223.57
2018-12-13T20:56:29.248Z,206.10
2018-12-13T20:58:56.210Z,206.83
2018-12-13T21:01:22.948Z,218.27
2018-12-13T21:03:49.724Z,204.30
2018-12-13T21:06:16.510Z,217.57
2018-12-13T21:08:43.255Z,235.93
2018-12-13T21:11:10.044Z,283.30
2018-12-13T21:13:36.792Z,305.77
2018-12-13T21:16:03.640Z,277.93
2018-12-13T21:18:30.421Z,250.47
2018-12-13T21:20:57.465Z,229.17
2018-12-13T21:23:24.191Z,219.53
2018-12-13T21:25:50.999Z,235.40
2018-12-13T21:28:17.746Z,299.03
2018-12-13T21:30:44.512Z,342.53
2018-12-13T21:33:11.294Z,333.10
2018-12-13T21:35:38.270Z,325.77
2018-12-13T21:38:05.018Z,326.00
2018-12-13T21:40:31.784Z,331.83
2018-12-13T21:42:58.677Z,308.10
2018-12-13T21:45:25.500Z,290.27
2018-12-13T21:47:53.654Z,279.43
2018-12-13T21:50:20.839Z,281.10
2018-12-13T21:52:47.616Z,303.60
2018-12-13T21:55:14.678Z,289.80
2018-12-13T21:57:41.630Z,286.50
2018-12-13T22:00:09.639Z,276.20
2018-12-13T22:02:36.545Z,276.47
2018-12-13T22:05:03.756Z,259.97
2018-12-13T22:07:30.478Z,269.87
2018-12-13T22:09:57.284Z,265.07
2018-12-13T22:12:24.019Z,241.63
2018-12-13T22:14:50.895Z,266.87
2018-12-13T22:17:17.696Z,364.30
2018-12-13T22:19:44.440Z,432.20
2018-12-13T22:22:11.176Z,459.20
2018-12-13T22:24:37.964Z,490.93
2018-12-13T22:27:04.692Z,475.00
2018-12-13T22:29:31.434Z,403.57
2018-12-13T22:31:58.415Z,392.40
2018-12-13T22:34:25.482Z,411.23
2018-12-13T22:36:52.302Z,374.47
2018-12-13T22:39:19.073Z,325.50
2018-12-13T22:41:45.805Z,311.33
2018-12-13T22:44:12.530Z,303.13
2018-12-13T22:46:39.302Z,267.30
2018-12-13T22:49:06.072Z,272.97
2018-12-13T22:51:32.813Z,262.33
2018-12-13T22:54:04.789Z,267.63
2018-12-13T22:56:31.529Z,259.97
2018-12-13T22:58:58.269Z,272.27
2018-12-13T23:01:25.047Z,266.27
2018-12-13T23:03:51.774Z,256.63
2018-12-13T23:06:18.684Z,268.93
2018-12-13T23:08:45.480Z,251.37
2018-12-13T23:11:12.688Z,237.73
2018-12-13T23:13:39.450Z,246.87
2018-12-13T23:16:06.221Z,253.20
2018-12-13T23:18:33.093Z,228.97
2018-12-13T23:20:59.905Z,230.77
2018-12-13T23:23:26.692Z,223.27
2018-12-13T23:25:53.447Z,222.37
2018-12-13T23:28:20.286Z,222.10
2018-12-13T23:30:47.077Z,223.93
2018-12-13T23:33:13.833Z,204.73
2018-12-13T23:35:40.579Z,209.43
2018-12-13T23:38:07.357Z,207.67
2018-12-13T23:40:34.199Z,208.07
2018-12-13T23:43:01.177Z,202.87
2018-12-13T23:45:27.949Z,203.20
2018-12-13T23:47:54.779Z,214.27
2018-12-13T23:50:21.541Z,204.13
2018-12-13T23:52:48.509Z,208.17
2018-12-13T23:55:15.226Z,218.90
2018-12-13T23:57:42.090Z,228.37
